createdAt,value
2023-11-12T00:03:02.664Z,9.63
2023-11-12T00:06:07.478Z,11.82
2023-11-12T00:09:10.648Z,13.50
2023-11-12T00:12:13.317Z,9.35
2023-11-12T00:15:16.001Z,11.13
2023-11-12T00:18:18.647Z,8.70
2023-11-12T00:21:22.593Z,14.50
2023-11-12T00:24:25.213Z,12.23
2023-11-12T00:27:28.217Z,9.43
2023-11-12T00:30:30.784Z,11.18
2023-11-12T00:33:33.573Z,11.05
2023-11-12T00:36:39.686Z,10.27
2023-11-12T00:39:42.950Z,11.27
2023-11-12T00:42:45.749Z,9.45
2023-11-12T00:45:48.411Z,10.20
2023-11-12T00:48:51.031Z,9.88
2023-11-12T00:51:55.022Z,9.20
2023-11-12T00:54:57.594Z,13.85
2023-11-12T00:58:00.327Z,10.65
2023-11-12T01:01:03.195Z,11.40
2023-11-12T01:04:06.602Z,10.93
2023-11-12T01:07:10.544Z,10.70
2023-11-12T01:10:13.291Z,11.55
2023-11-12T01:13:16.333Z,18.65
2023-11-12T01:16:19.057Z,75.88
2023-11-12T01:19:21.720Z,7.35
2023-11-12T01:22:25.708Z,6.05
2023-11-12T01:25:28.408Z,9.63
2023-11-12T01:28:32.931Z,5.97
2023-11-12T01:31:35.606Z,9.82
2023-11-12T01:34:38.201Z,9.35
2023-11-12T01:37:42.104Z,7.00
2023-11-12T01:40:44.680Z,5.95
2023-11-12T01:43:47.277Z,10.48
2023-11-12T01:46:50.100Z,6.63
2023-11-12T01:49:53.598Z,6.18
2023-11-12T01:52:57.591Z,10.10
2023-11-12T01:56:00.226Z,6.63
2023-11-12T01:59:02.945Z,11.73
2023-11-12T02:02:06.403Z,7.40
2023-11-12T02:05:09.601Z,9.60
2023-11-12T02:08:13.943Z,9.90
2023-11-12T02:11:16.688Z,10.52
2023-11-12T02:14:21.786Z,13.38
2023-11-12T02:17:26.279Z,11.95
2023-11-12T02:20:29.011Z,11.13
2023-11-12T02:23:33.030Z,11.40
2023-11-12T02:26:38.266Z,11.70
2023-11-12T02:29:48.581Z,13.43
2023-11-12T02:32:51.271Z,10.35
2023-11-12T02:35:53.919Z,7.75
2023-11-12T02:38:57.574Z,10.32
2023-11-12T02:42:01.662Z,17.60
2023-11-12T02:45:05.189Z,8.68
2023-11-12T02:48:08.426Z,12.30
2023-11-12T02:51:11.215Z,11.65
2023-11-12T02:54:13.941Z,9.95
2023-11-12T02:57:22.102Z,8.00
2023-11-12T03:00:28.611Z,11.63
2023-11-12T03:03:31.575Z,7.57
2023-11-12T03:06:34.295Z,11.63
2023-11-12T03:09:37.024Z,13.82
2023-11-12T03:12:41.170Z,13.77
2023-11-12T03:15:43.814Z,15.25
2023-11-12T03:18:49.975Z,16.70
2023-11-12T03:21:53.979Z,18.65
2023-11-12T03:24:56.584Z,21.55
2023-11-12T03:28:01.014Z,16.05
2023-11-12T03:31:03.594Z,16.08
2023-11-12T03:34:06.380Z,15.10
2023-11-12T03:37:09.003Z,16.38
2023-11-12T03:40:12.969Z,18.88
2023-11-12T03:43:16.892Z,18.35
2023-11-12T03:46:19.529Z,21.25
2023-11-12T03:49:22.339Z,22.85
2023-11-12T03:52:25.001Z,26.27
2023-11-12T03:55:27.612Z,22.33
2023-11-12T03:58:32.133Z,18.10
2023-11-12T04:01:34.764Z,26.50
2023-11-12T04:04:37.637Z,23.98
2023-11-12T04:07:40.341Z,20.05
2023-11-12T04:10:43.085Z,22.98
2023-11-12T04:13:47.332Z,20.77
2023-11-12T04:16:49.916Z,29.63
2023-11-12T04:19:53.005Z,25.10
2023-11-12T04:22:56.011Z,18.38
2023-11-12T04:25:58.875Z,20.15
2023-11-12T04:29:07.815Z,19.13
2023-11-12T04:32:10.392Z,21.55
2023-11-12T04:35:13.124Z,19.58
2023-11-12T04:38:15.960Z,24.52
2023-11-12T04:41:18.574Z,23.35
2023-11-12T04:44:22.513Z,25.90
2023-11-12T04:47:25.670Z,21.23
2023-11-12T04:50:29.774Z,22.85
2023-11-12T04:53:32.659Z,23.17
2023-11-12T04:56:35.226Z,21.52
2023-11-12T04:59:41.980Z,20.23
2023-11-12T05:02:46.121Z,22.90
2023-11-12T05:05:50.117Z,22.83
2023-11-12T05:08:52.733Z,18.23
2023-11-12T05:11:55.502Z,16.55
2023-11-12T05:14:59.487Z,18.05
2023-11-12T05:18:06.840Z,18.08
2023-11-12T05:24:12.127Z,22.27
2023-11-12T05:27:14.778Z,21.77
2023-11-12T05:30:18.768Z,24.27
2023-11-12T05:33:21.424Z,19.25
2023-11-12T05:36:24.075Z,25.38
2023-11-12T05:39:26.867Z,22.83
2023-11-12T05:42:29.541Z,22.77
2023-11-12T05:45:33.518Z,22.95
2023-11-12T05:48:36.138Z,22.08
2023-11-12T05:51:38.782Z,25.73
2023-11-12T05:54:41.447Z,22.80
2023-11-12T05:57:44.136Z,25.75
2023-11-12T06:00:48.234Z,26.48
2023-11-12T06:03:50.990Z,24.08
2023-11-12T06:06:53.668Z,21.08
2023-11-12T06:09:56.901Z,23.73
2023-11-12T06:12:59.600Z,21.65
2023-11-12T06:16:03.542Z,27.73
2023-11-12T06:19:06.565Z,27.83
2023-11-12T06:22:09.228Z,23.55
2023-11-12T06:25:12.939Z,26.80
2023-11-12T06:28:17.567Z,23.08
2023-11-12T06:31:22.350Z,24.10
2023-11-12T06:34:24.918Z,24.75
2023-11-12T06:37:27.765Z,23.92
2023-11-12T06:40:30.337Z,23.98
2023-11-12T06:43:32.903Z,20.63
2023-11-12T06:46:36.845Z,23.80
2023-11-12T06:49:39.439Z,23.13
2023-11-12T06:52:42.054Z,22.55
2023-11-12T06:55:44.742Z,21.85
2023-11-12T06:58:49.470Z,18.45
2023-11-12T07:01:53.500Z,19.45
2023-11-12T07:04:56.271Z,20.52
2023-11-12T07:07:59.026Z,19.92
2023-11-12T07:11:01.629Z,18.38
2023-11-12T07:14:04.584Z,19.25
2023-11-12T07:17:08.613Z,20.65
2023-11-12T07:20:12.515Z,18.20
2023-11-12T07:23:15.128Z,20.10
2023-11-12T07:26:17.762Z,19.95
2023-11-12T07:29:20.391Z,20.60
2023-11-12T07:32:24.388Z,21.30
2023-11-12T07:35:27.465Z,31.00
2023-11-12T07:38:30.036Z,21.02
2023-11-12T07:41:34.304Z,23.13
2023-11-12T07:44:37.570Z,18.48
2023-11-12T07:47:41.583Z,19.42
2023-11-12T07:50:44.211Z,17.48
2023-11-12T07:53:47.017Z,17.48
2023-11-12T07:56:49.606Z,19.70
2023-11-12T07:59:52.309Z,17.80
2023-11-12T08:02:56.374Z,16.08
2023-11-12T08:05:59.017Z,18.40
2023-11-12T08:09:01.885Z,20.67
2023-11-12T08:12:05.119Z,21.23
2023-11-12T08:15:08.999Z,23.58
2023-11-12T08:18:12.969Z,23.85
2023-11-12T08:21:15.651Z,21.98
2023-11-12T08:24:18.426Z,22.92
2023-11-12T08:27:21.067Z,27.23
2023-11-12T08:30:24.470Z,23.45
2023-11-12T08:33:28.525Z,24.70
2023-11-12T08:36:31.254Z,18.05
2023-11-12T08:39:33.891Z,24.05
2023-11-12T08:42:36.509Z,22.30
2023-11-12T08:45:39.160Z,23.58
2023-11-12T08:48:44.293Z,24.83
2023-11-12T08:51:47.014Z,28.80
2023-11-12T08:54:50.228Z,27.02
2023-11-12T08:57:52.925Z,22.40
2023-11-12T09:00:55.590Z,24.63
2023-11-12T09:03:59.684Z,21.67
2023-11-12T09:07:02.347Z,22.98
2023-11-12T09:10:05.734Z,24.20
2023-11-12T09:13:08.327Z,20.90
2023-11-12T09:16:12.027Z,22.50
2023-11-12T09:19:16.058Z,25.08
2023-11-12T09:22:18.666Z,19.17
2023-11-12T09:25:21.294Z,25.60
2023-11-12T09:28:23.925Z,22.70
2023-11-12T09:31:27.096Z,22.48
2023-11-12T09:34:31.713Z,17.65
2023-11-12T09:37:34.282Z,20.85
2023-11-12T09:40:37.012Z,24.08
2023-11-12T09:43:39.643Z,20.90
2023-11-12T09:46:42.314Z,22.02
2023-11-12T09:49:46.249Z,19.95
2023-11-12T09:52:49.076Z,19.70
2023-11-12T09:55:53.060Z,15.45
2023-11-12T09:58:55.924Z,19.05
2023-11-12T10:01:58.575Z,16.63
2023-11-12T10:05:05.705Z,18.05
2023-11-12T10:08:08.361Z,18.08
2023-11-12T10:11:18.398Z,17.75
2023-11-12T10:14:24.107Z,16.20
2023-11-12T10:17:26.743Z,14.05
2023-11-12T10:20:31.963Z,12.68
2023-11-12T10:23:34.572Z,14.35
2023-11-12T10:26:37.750Z,14.00
2023-11-12T10:29:41.125Z,15.50
2023-11-12T10:32:43.760Z,12.73
2023-11-12T10:35:48.250Z,14.00
2023-11-12T10:38:51.018Z,9.70
2023-11-12T10:41:53.651Z,16.63
2023-11-12T10:44:58.014Z,16.02
2023-11-12T10:48:00.905Z,13.13
2023-11-12T10:51:06.641Z,18.98
2023-11-12T10:54:09.430Z,16.00
2023-11-12T10:57:12.382Z,13.85
2023-11-12T11:00:16.967Z,19.35
2023-11-12T11:03:19.623Z,22.33
2023-11-12T11:06:23.800Z,26.75
2023-11-12T11:09:26.398Z,34.00
2023-11-12T11:12:29.221Z,31.77
2023-11-12T11:15:44.206Z,25.00
2023-11-12T11:18:53.144Z,32.13
2023-11-12T11:22:24.881Z,27.45
2023-11-12T11:25:27.684Z,30.63
2023-11-12T11:28:35.506Z,26.05
2023-11-12T11:31:38.817Z,34.05
2023-11-12T11:34:41.955Z,31.17
2023-11-12T11:38:11.257Z,35.70
2023-11-12T11:41:14.057Z,32.38
2023-11-12T11:44:45.593Z,39.70
2023-11-12T11:48:06.432Z,32.47
2023-11-12T11:51:48.649Z,32.85
2023-11-12T11:54:56.932Z,33.30
2023-11-12T11:58:01.602Z,33.22
2023-11-12T12:01:05.051Z,35.78
2023-11-12T12:04:07.883Z,35.30
2023-11-12T12:07:10.553Z,41.33
2023-11-12T12:10:27.616Z,40.08
2023-11-12T12:13:31.487Z,42.83
2023-11-12T12:16:34.614Z,45.78
2023-11-12T12:19:37.392Z,47.83
2023-11-12T12:22:40.034Z,52.92
2023-11-12T12:25:53.540Z,51.35
2023-11-12T12:28:56.179Z,63.03
2023-11-12T12:31:59.734Z,51.65
2023-11-12T12:35:02.405Z,61.63
2023-11-12T12:38:07.296Z,45.33
2023-11-12T12:41:11.209Z,65.63
2023-11-12T12:44:21.150Z,51.92
2023-11-12T12:47:31.744Z,59.75
2023-11-12T12:50:34.738Z,76.10
2023-11-12T12:53:38.000Z,53.28
2023-11-12T12:56:41.987Z,54.90
2023-11-12T12:59:44.674Z,60.33
2023-11-12T13:02:49.021Z,61.70
2023-11-12T13:05:52.002Z,61.88
2023-11-12T13:08:55.186Z,61.95
2023-11-12T13:11:59.211Z,64.57
2023-11-12T13:15:01.863Z,67.32
2023-11-12T13:18:04.768Z,64.40
2023-11-12T13:21:07.562Z,72.30
2023-11-12T13:24:11.522Z,71.63
2023-11-12T13:27:15.535Z,66.50
2023-11-12T13:30:18.436Z,59.15
2023-11-12T13:33:21.028Z,52.80
2023-11-12T13:36:25.799Z,72.03
2023-11-12T13:39:30.840Z,72.22
2023-11-12T13:42:36.754Z,64.22
2023-11-12T13:45:39.715Z,56.35
2023-11-12T13:48:42.821Z,68.95
2023-11-12T13:51:47.397Z,66.68
2023-11-12T13:54:50.895Z,75.25
2023-11-12T13:57:56.674Z,79.25
2023-11-12T14:00:59.377Z,71.13
2023-11-12T14:04:02.402Z,81.88
2023-11-12T14:07:06.952Z,54.72
2023-11-12T14:10:10.628Z,86.75
2023-11-12T14:13:15.686Z,52.75
2023-11-12T14:16:18.833Z,57.25
2023-11-12T14:19:21.491Z,61.42
2023-11-12T14:22:24.108Z,66.70
2023-11-12T14:25:26.891Z,61.42
2023-11-12T14:28:32.409Z,36.80
2023-11-12T14:31:35.446Z,39.65
2023-11-12T14:34:39.561Z,58.63
2023-11-12T14:37:42.536Z,74.97
2023-11-12T14:40:45.160Z,67.40
2023-11-12T14:43:49.366Z,64.18
2023-11-12T14:46:52.055Z,62.03
2023-11-12T14:49:54.677Z,66.50
2023-11-12T14:52:59.151Z,60.85
2023-11-12T14:56:02.087Z,67.10
2023-11-12T14:59:07.092Z,68.45
2023-11-12T15:02:13.853Z,80.65
2023-11-12T15:05:16.993Z,69.05
2023-11-12T15:08:19.566Z,74.13
2023-11-12T15:11:22.155Z,67.82
2023-11-12T15:14:26.129Z,54.60
2023-11-12T15:17:30.302Z,55.05
2023-11-12T15:20:36.108Z,63.63
2023-11-12T15:23:38.689Z,65.25
2023-11-12T15:26:42.511Z,59.95
2023-11-12T15:29:46.842Z,70.97
2023-11-12T15:32:50.108Z,68.82
2023-11-12T15:35:54.064Z,72.45
2023-11-12T15:38:57.290Z,51.22
2023-11-12T15:41:59.900Z,66.55
2023-11-12T15:45:07.011Z,84.68
2023-11-12T15:48:09.647Z,83.40
2023-11-12T15:51:14.868Z,73.80
2023-11-12T15:54:17.490Z,70.72
2023-11-12T15:57:20.096Z,81.97
2023-11-12T16:00:25.219Z,66.03
2023-11-12T16:03:30.697Z,68.88
2023-11-12T16:06:33.463Z,76.40
2023-11-12T16:09:36.149Z,71.35
2023-11-12T16:12:39.387Z,79.18
2023-11-12T16:15:43.503Z,90.35
2023-11-12T16:18:47.337Z,76.38
2023-11-12T16:21:50.053Z,71.80
2023-11-12T16:24:53.042Z,58.40
2023-11-12T16:27:56.525Z,70.60
2023-11-12T16:31:03.039Z,90.32
2023-11-12T16:34:06.206Z,87.65
2023-11-12T16:37:10.276Z,67.70
2023-11-12T16:40:15.853Z,41.45
2023-11-12T16:43:19.567Z,67.90
2023-11-12T16:46:23.552Z,59.63
2023-11-12T16:49:27.277Z,77.43
2023-11-12T16:52:29.951Z,67.40
2023-11-12T16:55:32.520Z,79.50
2023-11-12T16:58:35.164Z,66.72
2023-11-12T17:01:45.299Z,55.80
2023-11-12T17:04:48.605Z,59.00
2023-11-12T17:07:51.548Z,60.65
2023-11-12T17:10:54.218Z,70.45
2023-11-12T17:13:57.647Z,57.63
2023-11-12T17:17:01.620Z,52.28
2023-11-12T17:20:04.876Z,58.17
2023-11-12T17:23:08.678Z,74.50
2023-11-12T17:26:11.368Z,75.00
2023-11-12T17:29:14.023Z,64.03
2023-11-12T17:32:18.431Z,77.65
2023-11-12T17:35:21.021Z,59.58
2023-11-12T17:38:28.215Z,64.13
2023-11-12T17:41:30.848Z,65.68
2023-11-12T17:44:35.286Z,64.32
2023-11-12T17:47:39.479Z,60.80
2023-11-12T17:50:42.390Z,71.18
2023-11-12T17:53:44.973Z,63.97
2023-11-12T17:56:48.904Z,71.80
2023-11-12T17:59:52.014Z,63.72
2023-11-12T18:02:56.442Z,58.55
2023-11-12T18:05:59.190Z,68.95
2023-11-12T18:09:01.938Z,74.05
2023-11-12T18:12:04.910Z,71.68
2023-11-12T18:15:13.854Z,71.55
2023-11-12T18:18:22.238Z,80.22
2023-11-12T18:21:25.126Z,58.25
2023-11-12T18:24:27.699Z,59.25
2023-11-12T18:27:30.319Z,71.75
2023-11-12T18:30:32.958Z,72.72
2023-11-12T18:33:37.104Z,69.47
2023-11-12T18:36:40.774Z,63.17
2023-11-12T18:39:44.111Z,70.18
2023-11-12T18:42:46.819Z,81.13
2023-11-12T18:45:49.799Z,75.00
2023-11-12T18:48:55.489Z,68.93
2023-11-12T18:51:58.148Z,77.75
2023-11-12T18:55:00.791Z,85.65
2023-11-12T18:58:03.432Z,84.10
2023-11-12T19:01:06.284Z,80.15
2023-11-12T19:04:10.370Z,85.28
2023-11-12T19:07:15.854Z,73.93
2023-11-12T19:10:23.447Z,77.18
2023-11-12T19:13:26.175Z,78.90
2023-11-12T19:16:29.225Z,74.38
2023-11-12T19:19:34.534Z,78.10
2023-11-12T19:22:37.111Z,74.10
2023-11-12T19:25:40.671Z,80.03
2023-11-12T19:28:43.306Z,73.20
2023-11-12T19:31:46.050Z,78.35
2023-11-12T19:34:50.742Z,81.68
2023-11-12T19:37:53.384Z,79.43
2023-11-12T19:40:56.007Z,89.03
2023-11-12T19:43:58.640Z,88.40
2023-11-12T19:47:01.621Z,93.50
2023-11-12T19:50:07.811Z,96.45
2023-11-12T19:53:14.141Z,92.93
2023-11-12T19:56:18.276Z,97.15
2023-11-12T19:59:20.883Z,91.43
2023-11-12T20:02:23.574Z,88.65
2023-11-12T20:05:27.661Z,79.90
2023-11-12T20:08:30.281Z,76.43
2023-11-12T20:11:32.957Z,79.80
2023-11-12T20:14:37.765Z,83.20
2023-11-12T20:17:40.597Z,93.85
2023-11-12T20:20:44.533Z,74.60
2023-11-12T20:23:53.711Z,86.72
2023-11-12T20:26:57.540Z,87.25
2023-11-12T20:30:00.259Z,87.80
2023-11-12T20:33:03.018Z,98.30
2023-11-12T20:36:11.349Z,94.65
2023-11-12T20:39:16.891Z,120.80
2023-11-12T20:42:20.601Z,89.18
2023-11-12T20:45:23.254Z,110.05
2023-11-12T20:48:26.325Z,101.55
2023-11-12T20:51:30.317Z,85.63
2023-11-12T20:54:33.546Z,113.28
2023-11-12T20:57:36.759Z,102.85
2023-11-12T21:00:40.176Z,115.90
2023-11-12T21:03:43.646Z,121.88
2023-11-12T21:06:48.463Z,92.28
2023-11-12T21:09:52.420Z,98.28
2023-11-12T21:12:55.099Z,84.90
2023-11-12T21:15:58.320Z,93.97
2023-11-12T21:19:03.284Z,131.02
2023-11-12T21:22:07.490Z,104.57
2023-11-12T21:25:10.986Z,110.50
2023-11-12T21:28:13.755Z,98.15
2023-11-12T21:31:16.562Z,136.95
2023-11-12T21:34:19.310Z,180.80
2023-11-12T21:37:23.266Z,265.02
2023-11-12T21:40:25.981Z,184.50
2023-11-12T21:43:28.569Z,201.70
2023-11-12T21:46:31.211Z,234.15
2023-11-12T21:49:33.850Z,507.02
2023-11-12T21:52:37.824Z,248.32
2023-11-12T21:55:40.417Z,610.63
2023-11-12T21:58:43.031Z,423.45
2023-11-12T22:01:45.642Z,302.30
2023-11-12T22:04:51.149Z,466.20
2023-11-12T22:07:55.111Z,162.10
2023-11-12T22:10:57.675Z,308.75
2023-11-12T22:14:00.242Z,192.90
2023-11-12T22:17:03.245Z,398.17
2023-11-12T22:20:07.155Z,498.83
2023-11-12T22:23:12.572Z,424.77
2023-11-12T22:26:15.246Z,527.97
2023-11-12T22:29:18.871Z,465.00
2023-11-12T22:32:22.223Z,195.90
2023-11-12T22:35:24.924Z,239.60
2023-11-12T22:38:28.909Z,243.52
2023-11-12T22:41:31.492Z,310.52
2023-11-12T22:44:34.120Z,259.30
2023-11-12T22:47:36.781Z,387.77
2023-11-12T22:50:41.900Z,383.95
2023-11-12T22:53:45.862Z,517.25
2023-11-12T22:56:49.406Z,207.00
2023-11-12T22:59:52.209Z,209.60
2023-11-12T23:02:55.088Z,256.95
2023-11-12T23:05:57.765Z,368.17
2023-11-12T23:09:07.441Z,135.43
2023-11-12T23:12:11.430Z,170.02
2023-11-12T23:15:14.285Z,332.17
2023-11-12T23:18:18.692Z,203.23
2023-11-12T23:21:21.374Z,263.92
2023-11-12T23:24:25.368Z,169.15
2023-11-12T23:27:28.036Z,241.13
2023-11-12T23:30:31.699Z,119.15
2023-11-12T23:33:34.290Z,150.00
2023-11-12T23:36:36.919Z,198.93
2023-11-12T23:39:43.651Z,150.25
2023-11-12T23:42:46.593Z,194.15
2023-11-12T23:45:49.262Z,171.93
2023-11-12T23:48:51.927Z,149.95
2023-11-12T23:51:54.627Z,158.82
2023-11-12T23:54:58.599Z,103.38
2023-11-12T23:58:01.725Z,111.88
